createdAt,value
2017-12-25T00:02:06.065Z,41.27
2017-12-25T00:04:33.664Z,34.57
2017-12-25T00:07:01.240Z,35.70
2017-12-25T00:09:29.085Z,34.53
2017-12-25T00:11:56.677Z,34.10
2017-12-25T00:14:24.195Z,38.07
2017-12-25T00:16:51.758Z,26.23
2017-12-25T00:19:19.376Z,36.80
2017-12-25T00:21:47.148Z,33.87
2017-12-25T00:24:14.717Z,32.70
2017-12-25T00:26:42.288Z,36.80
2017-12-25T00:29:09.959Z,36.57
2017-12-25T00:31:37.536Z,31.40
2017-12-25T00:34:05.090Z,30.93
2017-12-25T00:36:32.645Z,37.47
2017-12-25T00:39:00.626Z,34.40
2017-12-25T00:41:28.156Z,29.83
2017-12-25T00:43:55.711Z,34.23
2017-12-25T00:46:23.371Z,34.33
2017-12-25T00:48:50.935Z,36.17
2017-12-25T00:51:18.490Z,31.20
2017-12-25T00:53:46.078Z,31.10
2017-12-25T00:56:13.680Z,36.00
2017-12-25T00:58:41.285Z,36.10
2017-12-25T01:01:08.804Z,36.80
2017-12-25T01:03:36.322Z,35.70
2017-12-25T01:06:04.321Z,32.87
2017-12-25T01:08:31.880Z,36.60
2017-12-25T01:10:59.453Z,37.63
2017-12-25T01:13:27.354Z,33.80
2017-12-25T01:15:54.908Z,40.67
2017-12-25T01:18:22.434Z,46.50
2017-12-25T01:20:50.048Z,38.13
2017-12-25T01:23:17.609Z,37.73
2017-12-25T01:25:45.211Z,36.00
2017-12-25T01:28:12.872Z,33.30
2017-12-25T01:30:40.637Z,43.53
2017-12-25T01:33:19.138Z,39.03
2017-12-25T01:35:46.667Z,37.43
2017-12-25T01:38:14.221Z,41.93
2017-12-25T01:40:41.796Z,29.77
2017-12-25T01:43:09.390Z,37.97
2017-12-25T01:45:36.975Z,39.57
2017-12-25T01:48:04.499Z,41.20
2017-12-25T01:50:32.063Z,41.97
2017-12-25T01:52:59.748Z,35.80
2017-12-25T01:55:28.178Z,42.40
2017-12-25T01:57:59.800Z,37.53
2017-12-25T02:00:41.887Z,37.17
2017-12-25T02:03:09.479Z,37.27
2017-12-25T02:05:48.075Z,38.73
2017-12-25T02:11:14.457Z,41.90
2017-12-25T02:13:41.981Z,38.40
2017-12-25T02:16:09.558Z,40.33
2017-12-25T02:18:37.106Z,40.80
2017-12-25T02:21:04.622Z,41.17
2017-12-25T02:23:32.202Z,37.13
2017-12-25T02:25:59.849Z,45.90
2017-12-25T02:28:27.372Z,38.13
2017-12-25T02:30:54.994Z,40.53
2017-12-25T02:33:22.651Z,37.27
2017-12-25T02:35:50.228Z,35.17
2017-12-25T02:38:17.817Z,33.07
2017-12-25T02:40:45.373Z,36.57
2017-12-25T02:43:12.902Z,37.53
2017-12-25T02:45:40.495Z,49.13
2017-12-25T02:48:08.045Z,41.30
2017-12-25T02:50:35.610Z,37.70
2017-12-25T02:53:03.363Z,39.30
2017-12-25T02:55:30.920Z,40.47
2017-12-25T02:57:58.556Z,35.30
2017-12-25T03:00:26.159Z,39.27
2017-12-25T03:02:53.745Z,34.57
2017-12-25T03:05:21.300Z,42.30
2017-12-25T03:07:48.874Z,38.17
2017-12-25T03:10:16.491Z,39.53
2017-12-25T03:12:44.044Z,36.50
2017-12-25T03:15:11.606Z,37.03
2017-12-25T03:17:39.158Z,34.70
2017-12-25T03:20:06.713Z,43.73
2017-12-25T03:22:34.325Z,35.97
2017-12-25T03:25:01.930Z,38.03
2017-12-25T03:27:29.451Z,42.23
2017-12-25T03:29:56.990Z,37.77
2017-12-25T03:32:24.946Z,46.60
2017-12-25T03:34:52.510Z,38.93
2017-12-25T03:37:20.062Z,41.07
2017-12-25T03:39:47.948Z,35.77
2017-12-25T03:42:15.481Z,34.17
2017-12-25T03:44:43.042Z,32.17
2017-12-25T03:47:10.621Z,35.00
2017-12-25T03:49:38.140Z,31.57
2017-12-25T03:52:05.746Z,33.83
2017-12-25T03:54:33.368Z,31.10
2017-12-25T03:57:01.181Z,28.27
2017-12-25T03:59:28.763Z,32.37
2017-12-25T04:01:56.479Z,32.40
2017-12-25T04:04:24.055Z,32.30
2017-12-25T04:06:51.882Z,34.00
2017-12-25T04:09:19.437Z,37.17
2017-12-25T04:11:47.054Z,30.20
2017-12-25T04:14:14.889Z,36.90
2017-12-25T04:16:42.445Z,35.07
2017-12-25T04:19:10.056Z,31.07
2017-12-25T04:21:37.612Z,28.87
2017-12-25T04:25:03.637Z,28.37
2017-12-25T04:27:31.234Z,32.03
2017-12-25T04:29:59.028Z,36.73
2017-12-25T04:32:26.550Z,24.87
2017-12-25T04:34:54.130Z,31.00
2017-12-25T04:37:21.731Z,40.80
2017-12-25T04:39:49.245Z,34.07
2017-12-25T04:42:17.300Z,35.03
2017-12-25T04:44:44.961Z,34.90
2017-12-25T04:47:12.527Z,29.87
2017-12-25T04:49:40.445Z,27.10
2017-12-25T04:52:08.164Z,29.90
2017-12-25T04:54:35.688Z,31.60
2017-12-25T04:57:03.236Z,28.10
2017-12-25T04:59:30.814Z,26.07
2017-12-25T05:01:58.345Z,28.00
2017-12-25T05:04:26.325Z,28.33
2017-12-25T05:06:53.955Z,32.07
2017-12-25T05:09:21.626Z,33.10
2017-12-25T05:11:49.328Z,28.07
2017-12-25T05:14:16.847Z,28.57
2017-12-25T05:16:44.447Z,30.40
2017-12-25T05:19:12.059Z,33.10
2017-12-25T05:21:39.718Z,33.17
2017-12-25T05:24:07.346Z,27.60
2017-12-25T05:26:35.079Z,32.30
2017-12-25T05:29:02.641Z,32.07
2017-12-25T05:31:30.156Z,29.03
2017-12-25T05:33:57.700Z,27.80
2017-12-25T05:36:25.248Z,28.60
2017-12-25T05:38:52.783Z,28.80
2017-12-25T05:41:20.490Z,27.50
2017-12-25T05:43:48.040Z,27.23
2017-12-25T05:46:15.564Z,33.47
2017-12-25T05:48:43.141Z,25.57
2017-12-25T05:51:10.654Z,26.37
2017-12-25T05:53:38.223Z,26.70
2017-12-25T05:56:05.815Z,28.80
2017-12-25T05:58:33.755Z,26.07
2017-12-25T06:01:01.272Z,34.77
2017-12-25T06:03:28.824Z,29.60
2017-12-25T06:05:56.410Z,26.33
2017-12-25T06:08:24.026Z,26.63
2017-12-25T06:10:51.577Z,25.80
2017-12-25T06:13:19.133Z,29.30
2017-12-25T06:15:46.676Z,25.30
2017-12-25T06:18:14.201Z,29.27
2017-12-25T06:20:41.821Z,28.90
2017-12-25T06:23:09.646Z,27.87
2017-12-25T06:25:37.201Z,29.23
2017-12-25T06:28:04.772Z,29.73
2017-12-25T06:30:32.363Z,29.30
2017-12-25T06:32:59.922Z,28.90
2017-12-25T06:35:27.472Z,29.23
2017-12-25T06:37:54.991Z,25.07
2017-12-25T06:40:22.757Z,28.37
2017-12-25T06:42:50.308Z,31.20
2017-12-25T06:45:17.856Z,29.17
2017-12-25T06:47:45.402Z,30.00
2017-12-25T06:50:13.039Z,31.63
2017-12-25T06:52:41.036Z,30.70
2017-12-25T06:55:08.811Z,25.17
2017-12-25T06:57:36.488Z,24.07
2017-12-25T07:00:04.179Z,24.20
2017-12-25T07:02:31.729Z,24.03
2017-12-25T07:04:59.298Z,24.70
2017-12-25T07:07:26.880Z,22.73
2017-12-25T07:09:54.867Z,21.40
2017-12-25T07:12:22.488Z,18.17
2017-12-25T07:14:50.005Z,19.50
2017-12-25T07:17:17.566Z,26.00
2017-12-25T07:19:45.189Z,23.33
2017-12-25T07:22:12.867Z,22.07
2017-12-25T07:24:40.439Z,19.80
2017-12-25T07:27:08.049Z,17.80
2017-12-25T07:29:35.598Z,15.20
2017-12-25T07:32:03.102Z,18.93
2017-12-25T07:34:30.669Z,20.77
2017-12-25T07:36:58.250Z,18.97
2017-12-25T07:39:25.837Z,18.57
2017-12-25T07:41:53.382Z,17.50
2017-12-25T07:44:20.930Z,15.90
2017-12-25T07:46:48.440Z,15.43
2017-12-25T07:49:16.018Z,16.70
2017-12-25T07:51:43.694Z,15.90
2017-12-25T07:54:11.597Z,19.87
2017-12-25T07:56:39.149Z,18.90
2017-12-25T07:59:06.698Z,20.90
2017-12-25T08:01:34.293Z,28.03
2017-12-25T08:04:01.797Z,18.87
2017-12-25T08:06:29.341Z,61.53
2017-12-25T08:08:57.129Z,16.97
2017-12-25T08:11:24.803Z,15.97
2017-12-25T08:13:52.382Z,16.27
2017-12-25T08:16:20.057Z,19.50
2017-12-25T08:18:47.669Z,14.70
2017-12-25T08:21:15.650Z,10.77
2017-12-25T08:23:43.165Z,10.07
2017-12-25T08:26:10.688Z,9.93
2017-12-25T08:28:38.294Z,12.23
2017-12-25T08:31:05.832Z,10.00
2017-12-25T08:33:33.399Z,9.03
2017-12-25T08:36:01.004Z,7.83
2017-12-25T08:38:28.527Z,9.30
2017-12-25T08:40:56.083Z,10.53
2017-12-25T08:43:23.682Z,6.50
2017-12-25T08:45:51.336Z,7.67
2017-12-25T08:48:18.882Z,8.73
2017-12-25T08:50:46.486Z,7.13
2017-12-25T08:53:14.043Z,6.87
2017-12-25T08:55:41.667Z,8.90
2017-12-25T08:58:09.266Z,12.97
2017-12-25T09:00:36.834Z,11.17
2017-12-25T09:03:04.385Z,10.10
2017-12-25T09:05:32.015Z,10.30
2017-12-25T09:07:59.566Z,11.10
2017-12-25T09:10:27.071Z,8.53
2017-12-25T09:12:54.850Z,14.50
2017-12-25T09:15:22.374Z,8.90
2017-12-25T09:17:50.098Z,8.43
2017-12-25T09:20:17.655Z,12.33
2017-12-25T09:22:45.167Z,20.70
2017-12-25T09:25:12.676Z,11.20
2017-12-25T09:27:40.497Z,7.67
2017-12-25T09:30:08.018Z,10.50
2017-12-25T09:32:35.561Z,11.47
2017-12-25T09:35:03.150Z,8.53
2017-12-25T09:37:30.686Z,8.47
2017-12-25T09:39:58.248Z,8.57
2017-12-25T09:42:25.763Z,6.97
2017-12-25T09:44:53.272Z,13.70
2017-12-25T09:47:20.863Z,10.83
2017-12-25T09:49:48.410Z,6.67
2017-12-25T09:52:15.981Z,8.83
2017-12-25T09:54:43.583Z,11.53
2017-12-25T09:57:11.186Z,9.13
2017-12-25T09:59:38.691Z,8.00
2017-12-25T10:02:06.251Z,8.00
2017-12-25T10:04:33.811Z,7.70
2017-12-25T10:07:01.515Z,7.23
2017-12-25T10:09:29.029Z,8.50
2017-12-25T10:11:56.631Z,8.83
2017-12-25T10:14:24.151Z,8.13
2017-12-25T10:16:51.706Z,7.93
2017-12-25T10:19:19.525Z,6.83
2017-12-25T10:21:47.079Z,9.00
2017-12-25T10:24:14.646Z,9.03
2017-12-25T10:26:42.218Z,8.40
2017-12-25T10:29:09.779Z,6.20
2017-12-25T10:31:37.348Z,11.50
2017-12-25T10:34:04.886Z,7.00
2017-12-25T10:36:32.441Z,7.90
2017-12-25T10:39:00.021Z,16.10
2017-12-25T10:41:27.536Z,50.70
2017-12-25T10:43:55.358Z,9.60
2017-12-25T10:46:22.906Z,9.23
2017-12-25T10:48:50.420Z,8.23
2017-12-25T10:51:17.992Z,6.40
2017-12-25T10:53:45.566Z,9.43
2017-12-25T10:56:13.110Z,6.83
2017-12-25T10:58:40.719Z,12.40
2017-12-25T11:01:08.262Z,7.87
2017-12-25T11:03:35.805Z,8.03
2017-12-25T11:06:03.750Z,7.30
2017-12-25T11:08:31.259Z,7.27
2017-12-25T11:10:58.785Z,7.27
2017-12-25T11:13:26.678Z,6.60
2017-12-25T11:15:54.189Z,7.23
2017-12-25T11:18:21.739Z,6.87
2017-12-25T11:20:49.335Z,6.03
2017-12-25T11:23:16.894Z,8.50
2017-12-25T11:25:44.453Z,7.30
2017-12-25T11:28:11.964Z,7.40
2017-12-25T11:30:39.542Z,8.20
2017-12-25T11:33:07.198Z,8.33
2017-12-25T11:35:34.763Z,10.40
2017-12-25T11:38:02.353Z,10.73
2017-12-25T11:40:29.929Z,10.20
2017-12-25T11:42:57.470Z,8.03
2017-12-25T11:45:25.050Z,8.97
2017-12-25T11:47:52.594Z,11.67
2017-12-25T11:50:20.141Z,11.53
2017-12-25T11:52:47.812Z,11.30
2017-12-25T11:55:15.406Z,10.80
2017-12-25T11:57:43.034Z,10.30
2017-12-25T12:00:10.617Z,12.30
2017-12-25T12:02:38.162Z,10.43
2017-12-25T12:05:05.713Z,10.83
2017-12-25T12:07:33.660Z,13.23
2017-12-25T12:10:01.168Z,13.13
2017-12-25T12:12:28.671Z,9.47
2017-12-25T12:14:56.283Z,13.33
2017-12-25T12:17:23.800Z,10.60
2017-12-25T12:19:51.313Z,11.23
2017-12-25T12:22:19.052Z,12.60
2017-12-25T12:24:46.577Z,10.73
2017-12-25T12:27:14.145Z,9.43
2017-12-25T12:29:41.689Z,8.83
2017-12-25T12:32:09.381Z,8.70
2017-12-25T12:34:37.036Z,9.30
2017-12-25T12:37:04.590Z,8.30
2017-12-25T12:39:32.194Z,7.10
2017-12-25T12:41:59.738Z,8.30
2017-12-25T12:44:27.427Z,8.60
2017-12-25T12:46:54.997Z,6.60
2017-12-25T12:49:22.578Z,6.20
2017-12-25T12:51:50.137Z,7.20
2017-12-25T12:54:17.704Z,6.20
2017-12-25T12:56:45.732Z,4.53
2017-12-25T12:59:13.261Z,3.50
2017-12-25T13:01:40.862Z,6.87
2017-12-25T13:04:08.363Z,5.47
2017-12-25T13:06:35.873Z,4.93
2017-12-25T13:09:03.480Z,1.87
2017-12-25T13:11:30.988Z,2.67
2017-12-25T13:13:58.533Z,2.50
2017-12-25T13:16:26.106Z,2.10
2017-12-25T13:18:53.650Z,1.93
2017-12-25T13:21:21.357Z,2.33
2017-12-25T13:23:49.136Z,3.50
2017-12-25T13:26:17.721Z,1.70
2017-12-25T13:28:45.646Z,4.83
2017-12-25T13:31:13.199Z,1.33
2017-12-25T13:33:40.841Z,1.70
2017-12-25T13:36:08.534Z,2.00
2017-12-25T13:38:36.102Z,2.70
2017-12-25T13:41:03.621Z,3.27
2017-12-25T13:43:31.568Z,2.20
2017-12-25T13:45:59.105Z,1.90
2017-12-25T13:48:26.610Z,1.77
2017-12-25T13:50:54.179Z,2.63
2017-12-25T13:53:22.365Z,2.83
2017-12-25T13:55:50.243Z,4.37
2017-12-25T13:58:17.795Z,3.00
2017-12-25T14:00:45.351Z,2.60
2017-12-25T14:03:12.966Z,4.90
2017-12-25T14:05:40.515Z,4.20
2017-12-25T14:08:08.066Z,6.63
2017-12-25T14:10:35.630Z,4.00
2017-12-25T14:13:03.139Z,4.20
2017-12-25T14:15:30.686Z,6.17
2017-12-25T14:17:58.248Z,6.53
2017-12-25T14:20:25.785Z,5.17
2017-12-25T14:22:53.329Z,7.20
2017-12-25T14:25:21.124Z,4.30
2017-12-25T14:27:48.677Z,3.97
2017-12-25T14:30:16.281Z,4.53
2017-12-25T14:32:43.829Z,3.90
2017-12-25T14:35:11.364Z,7.23
2017-12-25T14:37:38.938Z,4.30
2017-12-25T14:40:06.529Z,3.30
2017-12-25T14:42:34.049Z,3.63
2017-12-25T14:45:01.594Z,4.00
2017-12-25T14:47:29.382Z,3.70
2017-12-25T14:49:57.057Z,3.77
2017-12-25T14:52:24.938Z,3.53
2017-12-25T14:54:52.476Z,5.30
2017-12-25T14:57:20.013Z,4.00
2017-12-25T14:59:47.865Z,5.50
2017-12-25T15:02:15.421Z,3.47
2017-12-25T15:04:42.941Z,6.07
2017-12-25T15:07:10.566Z,3.70
2017-12-25T15:09:38.109Z,3.30
2017-12-25T15:12:05.658Z,4.83
2017-12-25T15:14:33.592Z,6.40
2017-12-25T15:17:01.109Z,5.27
2017-12-25T15:19:28.675Z,4.20
2017-12-25T15:21:56.289Z,2.67
2017-12-25T15:24:23.833Z,3.53
2017-12-25T15:26:51.345Z,4.40
2017-12-25T15:29:19.052Z,5.43
2017-12-25T15:31:46.598Z,5.40
2017-12-25T15:34:14.137Z,6.10
2017-12-25T15:36:41.682Z,7.87
2017-12-25T15:39:09.295Z,7.37
2017-12-25T15:41:36.917Z,6.77
2017-12-25T15:44:04.638Z,9.13
2017-12-25T15:46:32.367Z,6.00
2017-12-25T15:49:00.291Z,6.90
2017-12-25T15:51:27.834Z,7.00
2017-12-25T15:53:55.344Z,7.00
2017-12-25T15:56:22.954Z,7.47
2017-12-25T15:58:50.517Z,8.83
2017-12-25T16:01:18.061Z,5.70
2017-12-25T16:03:45.680Z,7.13
2017-12-25T16:06:13.218Z,12.53
2017-12-25T16:08:40.772Z,5.13
2017-12-25T16:11:08.308Z,7.93
2017-12-25T16:13:35.820Z,7.17
2017-12-25T16:16:03.438Z,6.73
2017-12-25T16:18:30.960Z,8.00
2017-12-25T16:20:58.498Z,6.33
2017-12-25T16:23:26.414Z,11.53
2017-12-25T16:25:54.317Z,6.70
2017-12-25T16:28:21.986Z,8.13
2017-12-25T16:30:49.563Z,7.97
2017-12-25T16:33:17.114Z,7.00
2017-12-25T16:35:44.625Z,6.17
2017-12-25T16:38:12.424Z,5.53
2017-12-25T16:40:40.008Z,4.23
2017-12-25T16:43:07.584Z,5.53
2017-12-25T16:45:35.097Z,5.43
2017-12-25T16:48:02.639Z,4.97
2017-12-25T16:50:30.229Z,5.27
2017-12-25T16:52:57.745Z,4.00
2017-12-25T16:55:25.294Z,3.63
2017-12-25T16:57:53.181Z,3.97
2017-12-25T17:00:20.722Z,3.47
2017-12-25T17:02:48.266Z,4.70
2017-12-25T17:05:15.853Z,5.20
2017-12-25T17:07:43.607Z,4.17
2017-12-25T17:10:11.159Z,4.50
2017-12-25T17:12:38.700Z,5.83
2017-12-25T17:15:07.961Z,6.37
2017-12-25T17:17:35.709Z,5.80
2017-12-25T17:20:04.176Z,6.13
2017-12-25T17:22:31.805Z,9.73
2017-12-25T17:24:59.350Z,4.60
2017-12-25T17:27:27.163Z,7.77
2017-12-25T17:29:54.723Z,6.90
2017-12-25T17:32:22.512Z,9.73
2017-12-25T17:34:50.062Z,6.17
2017-12-25T17:37:17.629Z,4.10
2017-12-25T17:39:45.164Z,7.63
2017-12-25T17:42:12.840Z,6.03
2017-12-25T17:44:40.436Z,9.37
2017-12-25T17:47:07.945Z,5.87
2017-12-25T17:49:35.537Z,7.40
2017-12-25T17:52:03.123Z,8.17
2017-12-25T17:54:30.649Z,7.23
2017-12-25T17:56:58.339Z,7.03
2017-12-25T17:59:25.903Z,9.10
2017-12-25T18:01:53.437Z,6.00
2017-12-25T18:04:21.047Z,5.33
2017-12-25T18:06:48.666Z,7.33
2017-12-25T18:09:16.667Z,7.90
2017-12-25T18:11:44.186Z,5.80
2017-12-25T18:14:11.703Z,4.20
2017-12-25T18:16:39.313Z,6.67
2017-12-25T18:19:06.874Z,10.67
2017-12-25T18:21:34.397Z,5.90
2017-12-25T18:24:02.164Z,5.40
2017-12-25T18:26:29.942Z,6.53
2017-12-25T18:28:57.452Z,5.97
2017-12-25T18:31:25.067Z,8.77
2017-12-25T18:33:52.618Z,6.67
2017-12-25T18:36:20.128Z,3.93
2017-12-25T18:38:47.740Z,9.03
2017-12-25T18:41:15.294Z,6.60
2017-12-25T18:43:42.796Z,5.00
2017-12-25T18:46:10.332Z,5.20
2017-12-25T18:48:37.869Z,5.83
2017-12-25T18:51:05.791Z,5.23
2017-12-25T18:53:33.341Z,5.10
2017-12-25T18:56:01.127Z,5.53
2017-12-25T18:58:28.729Z,5.83
2017-12-25T19:00:56.355Z,5.90
2017-12-25T19:03:24.831Z,6.40
2017-12-25T19:05:52.646Z,5.00
2017-12-25T19:08:20.230Z,5.73
2017-12-25T19:10:47.774Z,4.73
2017-12-25T19:13:15.324Z,5.47
2017-12-25T19:15:42.868Z,5.50
2017-12-25T19:18:10.430Z,4.70
2017-12-25T19:20:38.189Z,5.77
2017-12-25T19:23:05.754Z,5.83
2017-12-25T19:25:33.300Z,5.43
2017-12-25T19:28:01.313Z,6.23
2017-12-25T19:30:28.837Z,6.50
2017-12-25T19:32:56.394Z,5.60
2017-12-25T19:35:24.024Z,6.00
2017-12-25T19:37:51.591Z,4.30
2017-12-25T19:40:19.109Z,5.53
2017-12-25T19:42:48.787Z,6.10
2017-12-25T19:45:17.397Z,6.20
2017-12-25T19:47:45.163Z,4.17
2017-12-25T19:50:12.745Z,6.30
2017-12-25T19:52:40.247Z,3.97
2017-12-25T19:55:07.799Z,4.07
2017-12-25T19:57:35.359Z,4.20
2017-12-25T20:00:03.041Z,4.77
2017-12-25T20:02:30.589Z,3.00
2017-12-25T20:04:58.262Z,3.50
2017-12-25T20:07:25.782Z,5.10
2017-12-25T20:09:53.288Z,5.87
2017-12-25T20:12:20.961Z,4.00
2017-12-25T20:14:48.866Z,4.27
2017-12-25T20:17:16.422Z,4.23
2017-12-25T20:19:43.966Z,4.73
2017-12-25T20:22:11.502Z,6.40
2017-12-25T20:24:39.103Z,6.00
2017-12-25T20:27:06.666Z,3.83
2017-12-25T20:29:34.197Z,3.33
2017-12-25T20:32:01.801Z,4.37
2017-12-25T20:34:29.302Z,4.27
2017-12-25T20:36:56.813Z,3.87
2017-12-25T20:39:24.347Z,3.77
2017-12-25T20:41:52.041Z,3.67
2017-12-25T20:44:19.558Z,3.80
2017-12-25T20:46:47.125Z,3.30
2017-12-25T20:49:14.693Z,5.47
2017-12-25T20:51:42.243Z,4.93
2017-12-25T20:54:09.832Z,4.13
2017-12-25T20:56:37.348Z,7.50
2017-12-25T20:59:04.950Z,4.10
2017-12-25T21:01:32.494Z,4.50
2017-12-25T21:04:00.255Z,3.10
2017-12-25T21:06:27.846Z,3.80
2017-12-25T21:08:55.365Z,4.03
2017-12-25T21:11:22.881Z,3.67
2017-12-25T21:13:50.955Z,4.03
2017-12-25T21:16:18.548Z,6.20
2017-12-25T21:18:46.061Z,5.13
2017-12-25T21:21:13.620Z,4.93
2017-12-25T21:23:41.127Z,5.30
2017-12-25T21:26:08.925Z,5.00
2017-12-25T21:28:36.846Z,5.03
2017-12-25T21:31:04.392Z,7.87
2017-12-25T21:33:31.952Z,7.63
2017-12-25T21:35:59.524Z,8.77
2017-12-25T21:38:27.099Z,7.20
2017-12-25T21:40:54.615Z,6.10
2017-12-25T21:43:22.760Z,7.03
2017-12-25T21:45:50.307Z,7.77
2017-12-25T21:48:17.820Z,7.80
2017-12-25T21:50:45.375Z,9.07
2017-12-25T21:53:12.938Z,5.93
2017-12-25T21:55:40.461Z,5.67
2017-12-25T21:58:08.057Z,5.07
2017-12-25T22:00:35.601Z,6.97
2017-12-25T22:03:03.153Z,5.67
2017-12-25T22:05:30.728Z,5.80
2017-12-25T22:07:58.231Z,7.33
2017-12-25T22:10:25.747Z,7.33
2017-12-25T22:12:53.431Z,6.77
2017-12-25T22:15:20.990Z,5.73
2017-12-25T22:17:48.536Z,6.83
2017-12-25T22:20:16.438Z,7.80
2017-12-25T22:22:43.948Z,10.70
2017-12-25T22:25:11.443Z,11.87
2017-12-25T22:27:39.426Z,10.43
2017-12-25T22:30:06.953Z,9.97
2017-12-25T22:32:34.494Z,9.80
2017-12-25T22:35:02.208Z,6.60
2017-12-25T22:37:29.878Z,12.33
2017-12-25T22:39:57.467Z,11.40
2017-12-25T22:42:25.060Z,6.60
2017-12-25T22:44:52.600Z,6.90
2017-12-25T22:47:20.381Z,7.40
2017-12-25T22:49:48.098Z,8.00
2017-12-25T22:52:15.722Z,6.47
2017-12-25T22:54:43.296Z,13.40
2017-12-25T22:57:11.081Z,9.13
2017-12-25T22:59:38.689Z,5.03
2017-12-25T23:02:06.196Z,7.70
2017-12-25T23:04:33.699Z,8.00
2017-12-25T23:07:01.231Z,12.30
2017-12-25T23:09:29.182Z,9.10
2017-12-25T23:11:56.687Z,7.70
2017-12-25T23:14:24.243Z,6.90
2017-12-25T23:16:51.801Z,7.97
2017-12-25T23:19:19.347Z,7.23
2017-12-25T23:21:47.008Z,6.70
2017-12-25T23:24:14.548Z,7.73
2017-12-25T23:26:42.092Z,5.47
2017-12-25T23:29:09.679Z,6.67
2017-12-25T23:31:37.210Z,9.30
2017-12-25T23:34:04.720Z,7.20
2017-12-25T23:36:32.280Z,11.10
2017-12-25T23:38:59.792Z,11.07
2017-12-25T23:41:27.365Z,10.63
2017-12-25T23:43:54.929Z,8.83
2017-12-25T23:46:22.507Z,8.07
2017-12-25T23:48:50.053Z,8.37
2017-12-25T23:51:18.439Z,10.80
2017-12-25T23:53:45.985Z,8.30
2017-12-25T23:56:13.546Z,10.50
2017-12-25T23:58:41.146Z,9.70
